Time,TemperatureF,DewpointF,PressureIn,WindDirection,WindDirectionDegrees,WindSpeedMPH,WindSpeedGustMPH,Humidity,HourlyPrecipIn,Conditions,Clouds,dailyrainin,SolarRadiationWatts/m^2,SoftwareType,DateUTC
2013-06-15 00:01:00,55.0,53.0,30.01,East,84,2.0,8.0,93,0.00,,,0.00,0.000000,,2013-06-15 07:01:00,
2013-06-15 00:11:00,55.0,53.0,30.01,ENE,60,7.0,11.0,92,0.00,,,0.00,0.000000,,2013-06-15 07:11:00,
2013-06-15 00:23:00,55.0,53.0,30.00,East,79,7.0,13.0,92,0.00,,,0.00,0.000000,,2013-06-15 07:23:00,
2013-06-15 00:32:00,55.0,53.0,30.00,East,79,7.0,13.0,92,0.00,,,0.00,0.000000,,2013-06-15 07:32:00,
2013-06-15 00:43:00,55.0,53.0,30.00,ENE,70,6.0,11.0,92,0.00,,,0.00,0.000000,,2013-06-15 07:43:00,
2013-06-15 00:53:00,55.0,53.0,29.99,East,98,6.0,12.0,92,0.00,,,0.00,0.000000,,2013-06-15 07:53:00,
2013-06-15 01:02:00,55.0,53.0,29.98,East,83,6.0,12.0,92,0.00,,,0.00,0.000000,,2013-06-15 08:02:00,
2013-06-15 01:11:00,55.0,53.0,29.98,East,83,6.0,12.0,92,0.00,,,0.00,0.000000,,2013-06-15 08:11:00,
2013-06-15 01:22:00,55.0,53.0,29.98,NE,55,6.0,12.0,92,0.00,,,0.00,0.000000,,2013-06-15 08:22:00,
2013-06-15 01:33:00,55.0,53.0,29.98,NE,55,6.0,12.0,92,0.00,,,0.00,0.000000,,2013-06-15 08:33:00,
2013-06-15 01:42:00,55.0,53.0,29.98,East,93,5.0,11.0,92,0.00,,,0.00,0.000000,,2013-06-15 08:42:00,
2013-06-15 01:53:00,55.0,53.0,29.98,East,79,3.0,11.0,92,0.00,,,0.00,0.000000,,2013-06-15 08:53:00,
2013-06-15 02:02:00,53.0,51.0,29.98,NE,50,0.0,4.0,92,0.00,,,0.00,0.000000,,2013-06-15 09:02:00,
2013-06-15 02:12:00,53.0,51.0,29.98,NE,50,0.0,4.0,92,0.00,,,0.00,0.000000,,2013-06-15 09:12:00,
2013-06-15 02:22:00,53.0,51.0,29.97,NE,36,5.0,10.0,93,0.00,,,0.00,0.000000,,2013-06-15 09:22:00,
2013-06-15 02:33:00,53.0,51.0,29.97,NE,36,5.0,10.0,93,0.00,,,0.00,0.000000,,2013-06-15 09:33:00,
2013-06-15 02:43:00,54.0,52.0,29.98,East,84,1.0,13.0,93,0.00,,,0.00,0.000000,,2013-06-15 09:43:00,
2013-06-15 02:52:00,53.0,51.0,29.98,East,101,3.0,8.0,93,0.00,,,0.00,0.000000,,2013-06-15 09:52:00,
2013-06-15 03:02:00,53.0,51.0,29.97,East,92,4.0,8.0,93,0.00,,,0.00,0.000000,,2013-06-15 10:02:00,
2013-06-15 03:11:00,53.0,51.0,29.97,East,92,4.0,8.0,93,0.00,,,0.00,0.000000,,2013-06-15 10:11:00,
2013-06-15 03:23:00,53.0,51.0,29.96,East,98,8.0,12.0,94,0.00,,,0.00,0.000000,,2013-06-15 10:23:00,
2013-06-15 03:33:00,53.0,51.0,29.96,East,98,8.0,12.0,94,0.00,,,0.00,0.000000,,2013-06-15 10:33:00,
2013-06-15 03:43:00,53.0,51.0,29.97,East,84,4.0,10.0,93,0.00,,,0.00,0.000000,,2013-06-15 10:43:00,
2013-06-15 03:53:00,53.0,51.0,29.97,ENE,69,5.0,12.0,94,0.00,,,0.00,0.000000,,2013-06-15 10:53:00,
2013-06-15 04:01:00,52.0,50.0,29.97,East,88,3.0,9.0,93,0.00,,,0.00,0.000000,,2013-06-15 11:01:00,
2013-06-15 04:11:00,52.0,50.0,29.97,East,88,3.0,9.0,93,0.00,,,0.00,0.000000,,2013-06-15 11:11:00,
2013-06-15 04:22:00,52.0,50.0,29.97,ESE,109,3.0,7.0,94,0.00,,,0.00,0.000000,,2013-06-15 11:22:00,
2013-06-15 04:33:00,51.0,49.0,29.97,SSE,160,2.0,4.0,93,0.00,,,0.00,0.000000,,2013-06-15 11:33:00,
2013-06-15 04:43:00,51.0,49.0,29.97,SSE,160,2.0,4.0,93,0.00,,,0.00,0.000000,,2013-06-15 11:43:00,
2013-06-15 04:53:00,50.0,48.0,29.97,SE,140,1.0,4.0,94,0.00,,,0.00,0.000000,,2013-06-15 11:53:00,
2013-06-15 05:01:00,49.0,47.0,29.97,ESE,107,0.0,2.0,94,0.00,,,0.00,0.000000,,2013-06-15 12:01:00,
2013-06-15 05:11:00,49.0,47.0,29.97,ESE,107,0.0,2.0,94,0.00,,,0.00,0.000000,,2013-06-15 12:11:00,
2013-06-15 05:22:00,50.0,49.0,29.97,SE,128,2.0,4.0,95,0.00,,,0.00,0.000000,,2013-06-15 12:22:00,
2013-06-15 05:33:00,49.0,48.0,29.97,SE,140,1.0,4.0,95,0.00,,,0.00,0.000000,,2013-06-15 12:33:00,
2013-06-15 05:43:00,49.0,48.0,29.97,SE,140,1.0,4.0,95,0.00,,,0.00,0.000000,,2013-06-15 12:43:00,
2013-06-15 05:52:00,49.0,47.0,29.97,SE,140,2.0,4.0,94,0.00,,,0.00,0.000000,,2013-06-15 12:52:00,
2013-06-15 06:02:00,49.0,48.0,29.97,SE,140,0.0,4.0,95,0.00,,,0.00,9.000000,,2013-06-15 13:02:00,
2013-06-15 06:11:00,49.0,48.0,29.97,SE,140,0.0,4.0,95,0.00,,,0.00,9.000000,,2013-06-15 13:11:00,
2013-06-15 06:22:00,49.0,48.0,29.96,ENE,57,3.0,8.0,96,0.00,,,0.00,14.000000,,2013-06-15 13:22:00,
2013-06-15 06:32:00,50.0,49.0,29.97,ESE,110,5.0,10.0,95,0.00,,,0.00,19.000000,,2013-06-15 13:32:00,
2013-06-15 06:43:00,50.0,49.0,29.97,ESE,110,5.0,10.0,95,0.00,,,0.00,19.000000,,2013-06-15 13:43:00,
2013-06-15 06:53:00,50.0,49.0,29.97,ENE,65,4.0,11.0,95,0.00,,,0.00,28.000000,,2013-06-15 13:53:00,
2013-06-15 07:01:00,50.0,49.0,29.97,ENE,65,4.0,11.0,95,0.00,,,0.00,28.000000,,2013-06-15 14:01:00,
2013-06-15 07:12:00,50.0,49.0,29.97,SE,128,3.0,9.0,95,0.00,,,0.00,35.000000,,2013-06-15 14:12:00,
2013-06-15 07:22:00,49.0,48.0,29.98,SSE,163,2.0,5.0,95,0.00,,,0.00,47.000000,,2013-06-15 14:22:00,
2013-06-15 07:34:00,50.0,49.0,29.98,WSW,241,0.0,5.0,96,0.00,,,0.00,181.000000,,2013-06-15 14:34:00,
2013-06-15 07:43:00,50.0,49.0,29.98,WSW,241,0.0,5.0,96,0.00,,,0.00,181.000000,,2013-06-15 14:43:00,
2013-06-15 07:53:00,49.0,48.0,29.99,West,270,1.0,4.0,96,0.00,,,0.00,139.000000,,2013-06-15 14:53:00,
2013-06-15 08:01:00,49.0,48.0,29.99,West,270,1.0,4.0,96,0.00,,,0.00,139.000000,,2013-06-15 15:01:00,
2013-06-15 08:11:00,50.0,49.0,29.99,WNW,282,2.0,5.0,96,0.00,,,0.00,90.000000,,2013-06-15 15:11:00,
2013-06-15 08:22:00,51.0,50.0,29.99,WNW,298,1.0,2.0,96,0.00,,,0.00,338.000000,,2013-06-15 15:22:00,
2013-06-15 08:33:00,51.0,50.0,29.99,WNW,298,1.0,2.0,96,0.00,,,0.00,338.000000,,2013-06-15 15:33:00,
2013-06-15 08:42:00,52.0,51.0,29.99,West,281,1.0,3.0,96,0.00,,,0.00,387.000000,,2013-06-15 15:42:00,
2013-06-15 08:53:00,54.0,53.0,29.99,West,275,3.0,7.0,96,0.00,,,0.00,394.000000,,2013-06-15 15:53:00,
2013-06-15 09:01:00,54.0,53.0,29.99,West,275,3.0,7.0,96,0.00,,,0.00,394.000000,,2013-06-15 16:01:00,
2013-06-15 09:11:00,53.0,52.0,30.00,WNW,286,4.0,6.0,95,0.00,,,0.00,499.000000,,2013-06-15 16:11:00,
2013-06-15 09:22:00,55.0,54.0,30.01,West,274,1.0,5.0,95,0.00,,,0.00,220.000000,,2013-06-15 16:22:00,
2013-06-15 09:33:00,55.0,54.0,30.01,West,274,1.0,5.0,95,0.00,,,0.00,220.000000,,2013-06-15 16:33:00,
2013-06-15 09:43:00,56.0,55.0,30.01,West,261,1.0,3.0,95,0.00,,,0.00,213.000000,,2013-06-15 16:43:00,
2013-06-15 09:53:00,55.0,53.0,30.01,WNW,295,2.0,5.0,94,0.00,,,0.00,253.000000,,2013-06-15 16:53:00,
2013-06-15 10:01:00,56.0,55.0,30.01,WNW,284,1.0,3.0,95,0.00,,,0.00,274.000000,,2013-06-15 17:01:00,
2013-06-15 10:11:00,56.0,55.0,30.01,WNW,284,1.0,3.0,95,0.00,,,0.00,274.000000,,2013-06-15 17:11:00,
2013-06-15 10:21:00,54.0,52.0,30.01,West,272,3.0,6.0,94,0.00,,,0.00,241.000000,,2013-06-15 17:21:00,
2013-06-15 10:32:00,54.0,52.0,30.01,West,272,3.0,6.0,94,0.00,,,0.00,241.000000,,2013-06-15 17:32:00,
2013-06-15 10:43:00,55.0,54.0,30.01,West,270,2.0,5.0,95,0.00,,,0.00,320.000000,,2013-06-15 17:43:00,
2013-06-15 10:52:00,56.0,55.0,30.01,WSW,256,3.0,5.0,95,0.00,,,0.00,346.000000,,2013-06-15 17:52:00,
2013-06-15 11:01:00,56.0,55.0,30.01,WSW,256,3.0,5.0,95,0.00,,,0.00,346.000000,,2013-06-15 18:01:00,
2013-06-15 11:11:00,55.0,54.0,30.01,WNW,292,3.0,7.0,95,0.00,,,0.00,380.000000,,2013-06-15 18:11:00,
2013-06-15 11:22:00,56.0,55.0,30.01,West,271,4.0,7.0,95,0.00,,,0.00,410.000000,,2013-06-15 18:22:00,
2013-06-15 11:32:00,56.0,55.0,30.02,WSW,248,4.0,7.0,95,0.00,,,0.00,401.000000,,2013-06-15 18:32:00,
2013-06-15 11:43:00,56.0,55.0,30.02,WSW,248,4.0,7.0,95,0.00,,,0.00,401.000000,,2013-06-15 18:43:00,
2013-06-15 11:53:00,56.0,55.0,30.02,West,277,3.0,6.0,95,0.00,,,0.00,415.000000,,2013-06-15 18:53:00,
2013-06-15 12:01:00,57.0,56.0,30.02,West,271,2.0,6.0,95,0.00,,,0.00,394.000000,,2013-06-15 19:01:00,
2013-06-15 12:11:00,57.0,56.0,30.02,West,271,2.0,6.0,95,0.00,,,0.00,394.000000,,2013-06-15 19:11:00,
2013-06-15 12:22:00,58.0,56.0,30.03,West,269,3.0,6.0,94,0.00,,,0.00,476.000000,,2013-06-15 19:22:00,
2013-06-15 12:32:00,57.0,55.0,30.03,NW,307,5.0,7.0,93,0.00,,,0.00,376.000000,,2013-06-15 19:32:00,
2013-06-15 12:43:00,57.0,55.0,30.03,NW,307,5.0,7.0,93,0.00,,,0.00,376.000000,,2013-06-15 19:43:00,
2013-06-15 12:52:00,57.0,55.0,30.03,WNW,283,3.0,6.0,94,0.00,,,0.00,434.000000,,2013-06-15 19:52:00,
2013-06-15 13:01:00,57.0,55.0,30.03,West,275,3.0,6.0,94,0.00,,,0.00,394.000000,,2013-06-15 20:01:00,
2013-06-15 13:11:00,57.0,55.0,30.03,West,275,3.0,6.0,94,0.00,,,0.00,394.000000,,2013-06-15 20:11:00,
2013-06-15 13:22:00,56.0,54.0,30.03,West,267,4.0,8.0,93,0.00,,,0.00,360.000000,,2013-06-15 20:22:00,
2013-06-15 13:33:00,56.0,54.0,30.03,West,267,4.0,8.0,93,0.00,,,0.00,360.000000,,2013-06-15 20:33:00,
2013-06-15 13:43:00,56.0,54.0,30.03,WSW,255,5.0,8.0,93,0.00,,,0.00,320.000000,,2013-06-15 20:43:00,
2013-06-15 13:53:00,56.0,54.0,30.03,West,275,4.0,6.0,94,0.00,,,0.00,287.000000,,2013-06-15 20:53:00,
2013-06-15 14:01:00,57.0,55.0,30.03,WSW,252,4.0,7.0,94,0.00,,,0.00,320.000000,,2013-06-15 21:01:00,
2013-06-15 14:11:00,57.0,55.0,30.03,WSW,252,4.0,7.0,94,0.00,,,0.00,320.000000,,2013-06-15 21:11:00,
2013-06-15 14:22:00,56.0,54.0,30.03,West,267,4.0,7.0,93,0.00,,,0.00,313.000000,,2013-06-15 21:22:00,
2013-06-15 14:33:00,56.0,54.0,30.03,West,267,4.0,7.0,93,0.00,,,0.00,313.000000,,2013-06-15 21:33:00,
2013-06-15 14:42:00,57.0,55.0,30.04,West,277,2.0,6.0,94,0.00,,,0.00,341.000000,,2013-06-15 21:42:00,
2013-06-15 14:53:00,57.0,55.0,30.04,WSW,257,3.0,6.0,93,0.00,,,0.00,276.000000,,2013-06-15 21:53:00,
2013-06-15 15:01:00,57.0,55.0,30.03,West,280,2.0,4.0,93,0.00,,,0.00,253.000000,,2013-06-15 22:01:00,
2013-06-15 15:11:00,57.0,55.0,30.03,West,280,2.0,4.0,93,0.00,,,0.00,253.000000,,2013-06-15 22:11:00,
2013-06-15 15:22:00,57.0,55.0,30.04,West,272,1.0,4.0,93,0.00,,,0.00,320.000000,,2013-06-15 22:22:00,
2013-06-15 15:32:00,58.0,56.0,30.04,West,274,2.0,4.0,93,0.00,,,0.00,309.000000,,2013-06-15 22:32:00,
2013-06-15 15:42:00,58.0,56.0,30.04,West,274,2.0,4.0,93,0.00,,,0.00,309.000000,,2013-06-15 22:42:00,
2013-06-15 15:53:00,58.0,56.0,30.04,West,281,2.0,4.0,92,0.00,,,0.00,297.000000,,2013-06-15 22:53:00,
2013-06-15 16:01:00,58.0,56.0,30.04,WSW,252,1.0,4.0,92,0.00,,,0.00,301.000000,,2013-06-15 23:01:00,
2013-06-15 16:11:00,58.0,56.0,30.04,WSW,252,1.0,4.0,92,0.00,,,0.00,301.000000,,2013-06-15 23:11:00,
2013-06-15 16:22:00,58.0,56.0,30.04,SW,233,0.0,2.0,92,0.00,,,0.00,287.000000,,2013-06-15 23:22:00,
2013-06-15 16:33:00,58.0,56.0,30.04,SW,233,0.0,2.0,92,0.00,,,0.00,287.000000,,2013-06-15 23:33:00,
2013-06-15 16:42:00,58.0,56.0,30.04,WSW,244,1.0,3.0,92,0.00,,,0.00,264.000000,,2013-06-15 23:42:00,
2013-06-15 16:52:00,58.0,56.0,30.04,SSW,206,1.0,2.0,92,0.00,,,0.00,295.000000,,2013-06-15 23:52:00,
2013-06-15 17:01:00,58.0,56.0,30.04,WSW,239,1.0,3.0,92,0.00,,,0.00,244.000000,,2013-06-16 00:01:00,
2013-06-15 17:11:00,58.0,56.0,30.04,WSW,239,1.0,3.0,92,0.00,,,0.00,244.000000,,2013-06-16 00:11:00,
2013-06-15 17:22:00,58.0,55.0,30.04,WSW,248,1.0,2.0,91,0.00,,,0.00,207.000000,,2013-06-16 00:22:00,
2013-06-15 17:33:00,57.0,55.0,30.04,SSW,198,1.0,3.0,92,0.00,,,0.00,188.000000,,2013-06-16 00:33:00,
2013-06-15 17:43:00,57.0,55.0,30.04,SSW,198,1.0,3.0,92,0.00,,,0.00,188.000000,,2013-06-16 00:43:00,
2013-06-15 17:52:00,57.0,55.0,30.05,WSW,257,1.0,3.0,92,0.00,,,0.00,141.000000,,2013-06-16 00:52:00,
2013-06-15 18:01:00,57.0,55.0,30.05,WSW,257,0.0,1.0,93,0.00,,,0.00,116.000000,,2013-06-16 01:01:00,
2013-06-15 18:11:00,57.0,55.0,30.05,WSW,257,0.0,1.0,93,0.00,,,0.00,116.000000,,2013-06-16 01:11:00,
2013-06-15 18:22:00,57.0,55.0,30.05,West,281,0.0,2.0,93,0.00,,,0.00,113.000000,,2013-06-16 01:22:00,
2013-06-15 18:33:00,57.0,55.0,30.05,West,281,0.0,2.0,93,0.00,,,0.00,113.000000,,2013-06-16 01:33:00,
2013-06-15 18:42:00,57.0,55.0,30.06,West,275,0.0,4.0,92,0.00,,,0.00,100.000000,,2013-06-16 01:42:00,
2013-06-15 18:53:00,57.0,55.0,30.06,West,275,0.0,2.0,92,0.00,,,0.00,77.000000,,2013-06-16 01:53:00,
2013-06-15 19:01:00,57.0,55.0,30.06,West,275,0.0,2.0,92,0.00,,,0.00,77.000000,,2013-06-16 02:01:00,
2013-06-15 19:11:00,57.0,54.0,30.06,West,263,2.0,3.0,91,0.00,,,0.00,60.000000,,2013-06-16 02:11:00,
2013-06-15 19:22:00,57.0,54.0,30.07,West,275,3.0,5.0,90,0.00,,,0.00,47.000000,,2013-06-16 02:22:00,
2013-06-15 19:33:00,57.0,54.0,30.07,West,275,1.0,4.0,89,0.00,,,0.00,35.000000,,2013-06-16 02:33:00,
2013-06-15 19:42:00,57.0,54.0,30.07,West,275,1.0,4.0,89,0.00,,,0.00,35.000000,,2013-06-16 02:42:00,
2013-06-15 19:53:00,57.0,54.0,30.07,West,272,1.0,4.0,89,0.00,,,0.00,26.000000,,2013-06-16 02:53:00,
2013-06-15 20:01:00,57.0,54.0,30.07,West,272,1.0,4.0,89,0.00,,,0.00,26.000000,,2013-06-16 03:01:00,
2013-06-15 20:11:00,56.0,53.0,30.07,West,262,1.0,4.0,89,0.00,,,0.00,23.000000,,2013-06-16 03:11:00,
2013-06-15 20:22:00,56.0,53.0,30.07,West,262,1.0,4.0,89,0.00,,,0.00,23.000000,,2013-06-16 03:22:00,
2013-06-15 20:33:00,56.0,53.0,30.07,West,278,0.0,2.0,89,0.00,,,0.00,14.000000,,2013-06-16 03:33:00,
2013-06-15 20:43:00,56.0,53.0,30.07,West,278,0.0,3.0,89,0.00,,,0.00,11.000000,,2013-06-16 03:43:00,
2013-06-15 20:53:00,56.0,53.0,30.07,NNE,26,0.0,1.0,89,0.00,,,0.00,5.000000,,2013-06-16 03:53:00,
2013-06-15 21:01:00,56.0,53.0,30.07,NNE,26,0.0,1.0,89,0.00,,,0.00,5.000000,,2013-06-16 04:01:00,
2013-06-15 21:12:00,56.0,53.0,30.07,SE,136,0.0,2.0,89,0.00,,,0.00,0.000000,,2013-06-16 04:12:00,
2013-06-15 21:23:00,56.0,53.0,30.07,SE,136,0.0,2.0,89,0.00,,,0.00,0.000000,,2013-06-16 04:23:00,
2013-06-15 21:33:00,56.0,53.0,30.08,SE,136,0.0,0.0,89,0.00,,,0.00,0.000000,,2013-06-16 04:33:00,
2013-06-15 21:42:00,56.0,53.0,30.08,SE,136,0.0,0.0,90,0.00,,,0.00,0.000000,,2013-06-16 04:42:00,
2013-06-15 21:53:00,56.0,53.0,30.08,SE,136,0.0,0.0,90,0.00,,,0.00,0.000000,,2013-06-16 04:53:00,
2013-06-15 22:01:00,56.0,53.0,30.08,SE,136,0.0,0.0,90,0.00,,,0.00,0.000000,,2013-06-16 05:01:00,
2013-06-15 22:11:00,56.0,53.0,30.09,SE,136,0.0,0.0,90,0.00,,,0.00,0.000000,,2013-06-16 05:11:00,
2013-06-15 22:22:00,56.0,53.0,30.09,SE,136,0.0,0.0,90,0.00,,,0.00,0.000000,,2013-06-16 05:22:00,
2013-06-15 22:33:00,56.0,53.0,30.09,SE,136,0.0,0.0,90,0.00,,,0.00,0.000000,,2013-06-16 05:33:00,
2013-06-15 22:43:00,56.0,53.0,30.09,SE,136,0.0,0.0,91,0.00,,,0.00,0.000000,,2013-06-16 05:43:00,
2013-06-15 22:52:00,56.0,53.0,30.09,SE,136,0.0,0.0,91,0.00,,,0.00,0.000000,,2013-06-16 05:52:00,
2013-06-15 23:01:00,56.0,53.0,30.09,SE,136,0.0,0.0,91,0.00,,,0.00,0.000000,,2013-06-16 06:01:00,
2013-06-15 23:11:00,55.0,52.0,30.09,SE,136,0.0,0.0,91,0.00,,,0.00,0.000000,,2013-06-16 06:11:00,
2013-06-15 23:22:00,55.0,52.0,30.10,SE,136,0.0,0.0,91,0.00,,,0.00,0.000000,,2013-06-16 06:22:00,
2013-06-15 23:33:00,55.0,52.0,30.10,SE,136,0.0,0.0,91,0.00,,,0.00,0.000000,,2013-06-16 06:33:00,
2013-06-15 23:43:00,55.0,52.0,30.10,SE,136,0.0,0.0,91,0.00,,,0.00,0.000000,,2013-06-16 06:43:00,
2013-06-15 23:52:00,55.0,52.0,30.10,SE,136,0.0,0.0,91,0.00,,,0.00,0.000000,,2013-06-16 06:52:00,